Time;durP1;ratioP1;P1;durP2;ratioP2;P2;SDS_P1;SDS_P2;PMS_P1;PMS_P2;Temp;Humidity;BMP_temperature;BMP_pressure;BME280_temperature;BME280_humidity;BME280_pressure;Samples;Min_cycle;Max_cycle;Signal;HPM_P1;HPM_P2
2022/04/14 00:01:20;;;;;;;8.63;4.13;;;;;;;10.19;71.88;100546.34;4980862;28;20055;-41
2022/04/14 00:03:47;;;;;;;7.30;3.13;;;;;;;10.19;72.26;100543.75;4979480;28;20047;-40
2022/04/14 00:06:13;;;;;;;5.82;2.60;;;;;;;10.19;72.31;100551.50;4977346;28;20463;-42
2022/04/14 00:08:40;;;;;;;6.45;3.33;;;;;;;10.18;72.02;100549.78;4979288;28;20046;-43
2022/04/14 00:11:06;;;;;;;6.75;2.80;;;;;;;10.18;72.08;100552.38;4973391;28;20042;-40
2022/04/14 00:13:34;;;;;;;7.45;3.25;;;;;;;10.16;72.37;100546.31;4982436;28;20055;-46
2022/04/14 00:16:00;;;;;;;6.30;2.65;;;;;;;10.15;72.12;100549.75;4973850;28;20054;-41
2022/04/14 00:18:27;;;;;;;7.07;3.25;;;;;;;10.12;72.68;100544.56;4971603;28;20118;-43
2022/04/14 00:20:54;;;;;;;7.78;3.40;;;;;;;10.11;72.47;100548.00;4981410;28;20101;-41
2022/04/14 00:23:20;;;;;;;5.22;2.63;;;;;;;10.09;72.47;100553.16;4973161;28;20384;-41
2022/04/14 00:25:47;;;;;;;8.82;3.45;;;;;;;10.08;72.41;100553.16;4968221;28;20105;-43
2022/04/14 00:28:13;;;;;;;7.57;3.60;;;;;;;10.06;72.62;100560.06;4968456;28;20514;-43
2022/04/14 00:30:40;;;;;;;6.22;3.45;;;;;;;10.03;72.49;100551.41;4972652;28;20042;-43
2022/04/14 00:33:07;;;;;;;9.13;3.42;;;;;;;10.00;72.70;100551.38;4966589;28;20137;-43
2022/04/14 00:35:33;;;;;;;7.05;3.53;;;;;;;9.98;73.12;100562.56;4976706;28;20113;-42
2022/04/14 00:38:00;;;;;;;8.70;3.50;;;;;;;9.95;73.16;100560.81;4966024;28;20051;-44
2022/04/14 00:40:27;;;;;;;6.45;3.65;;;;;;;9.94;72.83;100556.50;4975395;28;20050;-41
2022/04/14 00:42:53;;;;;;;7.20;3.67;;;;;;;9.92;73.17;100567.72;4975193;28;20046;-42
2022/04/14 00:45:20;;;;;;;6.15;3.28;;;;;;;9.90;73.15;100570.28;4966757;28;20132;-45
2022/04/14 00:47:47;;;;;;;12.70;3.45;;;;;;;9.88;73.19;100570.25;4969558;28;20047;-41
2022/04/14 00:50:13;;;;;;;8.27;3.63;;;;;;;9.86;73.01;100573.69;4978557;28;20053;-45
2022/04/14 00:52:47;;;;;;;8.63;3.22;;;;;;;9.82;73.45;100572.78;4967719;28;20042;-41
2022/04/14 00:55:14;;;;;;;8.38;3.22;;;;;;;9.82;72.94;100577.97;4980551;28;20461;-41
2022/04/14 00:57:43;;;;;;;7.45;3.08;;;;;;;9.82;73.24;100574.50;4976170;28;20050;-42
2022/04/14 01:00:11;;;;;;;8.48;3.08;;;;;;;9.81;73.30;100576.22;4972199;28;20057;-44
2022/04/14 01:02:43;;;;;;;8.93;3.25;;;;;;;9.80;73.04;100578.81;4970426;28;20057;-45
2022/04/14 01:05:10;;;;;;;6.80;2.75;;;;;;;9.77;73.50;100570.16;4979247;28;20097;-44
2022/04/14 01:07:37;;;;;;;10.05;3.35;;;;;;;9.77;73.33;100577.91;4969352;28;20054;-46
2022/04/14 01:10:05;;;;;;;8.73;3.22;;;;;;;9.75;73.61;100581.34;4974947;28;20121;-40
2022/04/14 01:12:32;;;;;;;8.32;3.58;;;;;;;9.73;73.25;100578.75;4965186;28;20054;-44
2022/04/14 01:14:58;;;;;;;9.85;2.67;;;;;;;9.70;73.67;100578.72;4972565;28;20602;-42
2022/04/14 01:17:25;;;;;;;10.48;2.80;;;;;;;9.69;73.38;100581.31;4973071;28;20136;-44
2022/04/14 01:19:51;;;;;;;7.82;2.38;;;;;;;9.67;73.31;100588.16;4974410;28;20114;-41
2022/04/14 01:22:23;;;;;;;7.97;2.95;;;;;;;9.65;73.15;100595.91;4967243;28;20050;-42
2022/04/14 01:24:54;;;;;;;10.02;3.50;;;;;;;9.61;73.70;100588.97;4975387;28;20726;-41
2022/04/14 01:27:21;;;;;;;8.48;3.65;;;;;;;9.59;73.46;100595.88;4964978;28;20101;-41
2022/04/14 01:29:51;;;;;;;7.55;3.60;;;;;;;9.58;73.15;100594.09;4968859;28;20109;-41
2022/04/14 01:32:19;;;;;;;10.48;3.58;;;;;;;9.54;73.40;100589.75;4974934;28;20051;-41
2022/04/14 01:34:46;;;;;;;10.18;3.83;;;;;;;9.52;73.07;100590.63;4971987;28;20101;-43
2022/04/14 01:37:13;;;;;;;8.02;3.35;;;;;;;9.50;73.40;100587.13;4967995;28;20054;-42
2022/04/14 01:39:40;;;;;;;9.63;3.45;;;;;;;9.49;73.49;100585.41;4970245;28;20463;-45
2022/04/14 01:42:07;;;;;;;8.27;3.55;;;;;;;9.46;73.09;100580.19;4968334;28;20109;-41
2022/04/14 01:44:34;;;;;;;9.13;2.92;;;;;;;9.44;72.98;100588.78;4969839;28;20403;-41
2022/04/14 01:47:01;;;;;;;10.20;3.95;;;;;;;9.42;73.03;100593.09;4974910;28;20053;-41
2022/04/14 01:49:28;;;;;;;9.48;2.88;;;;;;;9.40;73.01;100600.84;4973889;28;20043;-44
2022/04/14 01:51:55;;;;;;;6.95;3.20;;;;;;;9.36;72.91;100599.06;4971986;28;20476;-43
2022/04/14 01:54:21;;;;;;;10.35;3.92;;;;;;;9.30;72.61;100599.88;4975636;28;20078;-41
2022/04/14 01:56:49;;;;;;;6.45;3.15;;;;;;;9.24;72.85;100605.84;4973877;28;20047;-41
2022/04/14 01:59:16;;;;;;;8.77;3.40;;;;;;;9.16;73.22;100607.47;4977464;28;20502;-42
2022/04/14 02:01:42;;;;;;;11.10;4.05;;;;;;;9.09;72.87;100611.66;4974323;28;20050;-42
2022/04/14 02:04:09;;;;;;;9.98;3.97;;;;;;;9.04;73.60;100617.63;4974801;28;20082;-43
2022/04/14 02:06:36;;;;;;;9.00;4.35;;;;;;;8.99;72.93;100615.84;4972141;28;20109;-44
2022/04/14 02:09:03;;;;;;;10.60;3.65;;;;;;;8.96;72.93;100610.66;4972233;28;20054;-41
2022/04/14 02:11:29;;;;;;;11.50;4.47;;;;;;;8.96;73.80;100615.84;4973158;28;21021;-40
2022/04/14 02:13:56;;;;;;;12.23;4.07;;;;;;;8.96;73.87;100613.25;4977495;28;20458;-44
2022/04/14 02:16:23;;;;;;;9.15;4.10;;;;;;;8.96;73.67;100610.66;4973825;28;20055;-44
2022/04/14 02:18:50;;;;;;;8.70;3.88;;;;;;;8.95;74.02;100608.91;4972817;28;20062;-42
2022/04/14 02:21:16;;;;;;;10.05;3.42;;;;;;;8.95;74.03;100606.31;4978409;28;20664;-40
2022/04/14 02:23:43;;;;;;;8.13;3.40;;;;;;;8.95;73.88;100614.06;4973215;28;20042;-41
2022/04/14 02:26:09;;;;;;;8.52;4.05;;;;;;;8.96;73.94;100614.94;4973931;28;20051;-41
2022/04/14 02:28:36;;;;;;;12.85;3.55;;;;;;;8.96;73.98;100615.84;4976947;28;20055;-41
2022/04/14 02:31:02;;;;;;;9.05;4.65;;;;;;;8.96;73.39;100615.84;4972484;28;20690;-39
2022/04/14 02:33:29;;;;;;;10.90;4.57;;;;;;;8.95;74.22;100613.22;4969097;28;20079;-40
2022/04/14 02:35:56;;;;;;;11.23;4.15;;;;;;;8.95;73.96;100611.50;4975463;28;20458;-40
2022/04/14 02:38:22;;;;;;;12.93;3.65;;;;;;;8.93;73.12;100610.63;4977940;28;20105;-42
2022/04/14 02:40:49;;;;;;;11.82;4.90;;;;;;;8.93;73.71;100605.47;4978776;28;20055;-40
2022/04/14 02:43:15;;;;;;;10.20;3.88;;;;;;;8.91;74.00;100601.97;4973348;28;20058;-42
2022/04/14 02:45:42;;;;;;;11.52;4.80;;;;;;;8.87;73.96;100595.03;4973837;28;20050;-41
2022/04/14 02:48:09;;;;;;;10.77;4.00;;;;;;;8.85;74.00;100599.31;4976630;28;20545;-42
2022/04/14 02:50:36;;;;;;;9.02;4.60;;;;;;;8.82;73.94;100600.13;4977915;28;20686;-41
2022/04/14 02:53:03;;;;;;;12.38;5.35;;;;;;;8.80;74.05;100588.03;4971463;28;21116;-40
2022/04/14 02:55:30;;;;;;;16.25;6.05;;;;;;;8.78;74.00;100590.59;4973876;28;20097;-42
2022/04/14 02:57:57;;;;;;;15.05;4.60;;;;;;;8.74;73.46;100589.72;4972383;28;20121;-41
2022/04/14 03:00:23;;;;;;;14.35;5.03;;;;;;;8.73;74.34;100582.81;4967524;28;20051;-43
2022/04/14 03:02:50;;;;;;;9.60;4.57;;;;;;;8.71;73.86;100579.31;4970876;28;20042;-45
2022/04/14 03:05:16;;;;;;;10.68;4.40;;;;;;;8.68;73.48;100593.94;4976930;28;20050;-41
2022/04/14 03:07:43;;;;;;;11.55;5.25;;;;;;;8.66;74.29;100591.31;4969553;28;20895;-42
2022/04/14 03:10:09;;;;;;;15.30;4.68;;;;;;;8.62;73.17;100586.97;4975074;28;20047;-40
2022/04/14 03:12:42;;;;;;;15.27;5.03;;;;;;;8.61;72.99;100587.78;4973682;28;20089;-43
2022/04/14 03:15:10;;;;;;;10.38;4.05;;;;;;;8.59;73.92;100584.34;4977785;28;20054;-42
2022/04/14 03:17:37;;;;;;;13.32;5.45;;;;;;;8.57;73.59;100573.97;4972343;28;20086;-41
2022/04/14 03:20:04;;;;;;;18.33;4.80;;;;;;;8.58;73.84;100580.03;4974924;28;20412;-43
2022/04/14 03:22:33;;;;;;;13.57;5.63;;;;;;;8.56;74.25;100581.69;4974482;28;20046;-41
2022/04/14 03:25:04;;;;;;;15.85;5.30;;;;;;;8.55;74.47;100583.41;4973013;28;20038;-41
2022/04/14 03:27:31;;;;;;;12.35;3.25;;;;;;;8.51;74.20;100591.06;4972052;28;20109;-41
2022/04/14 03:29:57;;;;;;;8.50;3.58;;;;;;;8.45;73.04;100587.53;4972949;28;20397;-40
2022/04/14 03:32:25;;;;;;;13.18;5.18;;;;;;;8.40;73.52;100596.94;4967411;28;20109;-42
2022/04/14 03:34:52;;;;;;;11.40;5.35;;;;;;;8.36;73.94;100592.56;4980746;28;20042;-42
2022/04/14 03:37:20;;;;;;;12.00;4.72;;;;;;;8.32;73.59;100591.66;4976523;28;20058;-41
2022/04/14 03:39:47;;;;;;;14.25;4.82;;;;;;;8.30;73.09;100592.47;4972279;28;20054;-39
2022/04/14 03:42:13;;;;;;;10.20;4.85;;;;;;;8.28;73.14;100589.84;4974661;28;20050;-41
2022/04/14 03:44:40;;;;;;;14.30;4.47;;;;;;;8.27;74.20;100597.59;4971408;28;20046;-42
2022/04/14 03:47:07;;;;;;;9.85;5.15;;;;;;;8.25;73.50;100594.13;4971187;28;20114;-45
2022/04/14 03:49:34;;;;;;;12.45;5.25;;;;;;;8.22;73.91;100600.09;4969271;28;20051;-40
2022/04/14 03:52:00;;;;;;;12.18;4.57;;;;;;;8.19;74.19;100595.75;4973336;28;20054;-40
2022/04/14 03:54:27;;;;;;;13.57;4.97;;;;;;;8.19;74.30;100608.66;4970096;28;20117;-44
2022/04/14 03:56:54;;;;;;;13.48;5.18;;;;;;;8.17;74.31;100610.34;4972042;28;20043;-40
2022/04/14 03:59:21;;;;;;;13.32;5.30;;;;;;;8.14;74.36;100606.84;4962430;28;20106;-42
2022/04/14 04:01:48;;;;;;;10.18;4.60;;;;;;;8.12;72.90;100604.25;4966882;28;20101;-42
2022/04/14 04:04:14;;;;;;;12.73;4.18;;;;;;;8.08;73.33;100602.47;4977553;28;20049;-40
2022/04/14 04:06:41;;;;;;;12.52;5.78;;;;;;;8.07;73.31;100611.06;4976257;28;20101;-40
2022/04/14 04:09:08;;;;;;;12.60;5.20;;;;;;;8.05;73.56;100607.56;4974629;28;20635;-42
2022/04/14 04:11:35;;;;;;;11.50;4.95;;;;;;;8.02;73.54;100607.50;4977922;28;20379;-46
2022/04/14 04:14:02;;;;;;;12.75;5.25;;;;;;;7.99;74.79;100605.75;4977276;28;20089;-42
2022/04/14 04:16:28;;;;;;;11.98;5.63;;;;;;;7.98;73.17;100602.28;4972708;28;20047;-41
2022/04/14 04:18:55;;;;;;;13.93;5.55;;;;;;;7.98;73.92;100602.28;4970551;28;20051;-41
2022/04/14 04:21:22;;;;;;;13.93;5.53;;;;;;;7.95;73.67;100607.44;4980729;28;20058;-40
2022/04/14 04:23:48;;;;;;;14.18;5.50;;;;;;;7.94;73.00;100610.81;4968566;28;20055;-40
2022/04/14 04:26:15;;;;;;;12.18;5.95;;;;;;;7.93;73.53;100613.38;4975743;28;20560;-41
2022/04/14 04:28:41;;;;;;;16.10;6.38;;;;;;;7.91;74.60;100615.91;4969190;28;20572;-42
2022/04/14 04:31:11;;;;;;;17.45;6.72;;;;;;;7.89;73.85;100611.59;4971620;28;20137;-42
2022/04/14 04:33:38;;;;;;;15.43;5.43;;;;;;;7.87;74.91;100623.59;4974576;28;20391;-44
2022/04/14 04:36:05;;;;;;;16.10;6.78;;;;;;;7.85;73.24;100626.16;4976418;28;20078;-41
2022/04/14 04:38:31;;;;;;;12.65;5.47;;;;;;;7.84;73.42;100627.00;4976448;28;20495;-40
2022/04/14 04:40:58;;;;;;;18.58;5.70;;;;;;;7.82;74.65;100610.63;4967377;28;20608;-46
2022/04/14 04:43:26;;;;;;;19.33;5.55;;;;;;;7.78;73.86;100621.72;4973125;28;20053;-42
2022/04/14 04:45:53;;;;;;;11.07;5.00;;;;;;;7.74;73.90;100615.66;4969808;28;20047;-41
2022/04/14 04:48:19;;;;;;;18.98;5.82;;;;;;;7.70;73.19;100627.59;4973060;28;20069;-42
2022/04/14 04:50:46;;;;;;;108.57;7.32;;;;;;;7.67;73.30;100631.84;4972470;28;20269;-41
2022/04/14 04:53:12;;;;;;;95.13;5.40;;;;;;;7.58;73.93;100630.84;4981333;28;20089;-41
2022/04/14 04:55:39;;;;;;;57.20;5.72;;;;;;;7.55;73.26;100638.50;4972215;28;20051;-41
2022/04/14 04:58:06;;;;;;;45.65;5.05;;;;;;;7.53;73.57;100636.75;4977234;28;20430;-42
2022/04/14 05:00:33;;;;;;;33.17;5.03;;;;;;;7.52;74.35;100635.88;4976551;28;20051;-41
2022/04/14 05:03:00;;;;;;;29.08;5.85;;;;;;;7.54;74.89;100638.47;4984517;28;20053;-41
2022/04/14 05:05:27;;;;;;;15.23;4.72;;;;;;;7.56;74.71;100641.94;4984518;28;20050;-42
2022/04/14 05:07:53;;;;;;;13.90;4.93;;;;;;;7.57;73.38;100641.13;4979424;28;20116;-43
2022/04/14 05:10:20;;;;;;;28.90;6.10;;;;;;;7.59;73.64;100654.88;4966476;28;20627;-42
2022/04/14 05:12:46;;;;;;;15.02;5.95;;;;;;;7.61;74.38;100648.06;4970844;28;20538;-40
2022/04/14 05:15:13;;;;;;;19.80;5.28;;;;;;;7.63;74.34;100656.69;4969060;28;20126;-41
2022/04/14 05:17:40;;;;;;;19.50;5.20;;;;;;;7.64;74.70;100668.75;4974866;28;20046;-43
2022/04/14 05:20:24;;;;;;;20.55;4.80;;;;;;;7.64;73.61;100673.91;4973933;28;20611;-42
2022/04/14 05:22:50;;;;;;;21.52;5.43;;;;;;;7.65;73.73;100667.91;4972800;28;20046;-41
2022/04/14 05:25:17;;;;;;;12.95;5.18;;;;;;;7.71;74.41;100680.91;4968164;28;20102;-41
2022/04/14 05:27:44;;;;;;;20.65;5.55;;;;;;;7.74;73.86;100682.69;4971399;28;20093;-41
2022/04/14 05:30:11;;;;;;;16.08;5.47;;;;;;;7.77;73.33;100685.31;4969425;28;20113;-40
2022/04/14 05:32:38;;;;;;;20.38;7.20;;;;;;;7.80;73.39;100681.94;4972695;28;20050;-41
2022/04/14 05:35:07;;;;;;;24.83;6.05;;;;;;;7.87;73.91;100686.34;4967875;28;20105;-43
2022/04/14 05:37:35;;;;;;;22.38;5.28;;;;;;;7.86;74.83;100689.78;4970020;28;20047;-43
2022/04/14 05:40:03;;;;;;;31.27;5.32;;;;;;;7.86;73.91;100684.63;4970097;28;20125;-44
2022/04/14 05:42:30;;;;;;;12.50;4.63;;;;;;;7.89;74.12;100694.13;4976201;28;20470;-41
2022/04/14 05:44:58;;;;;;;16.90;7.05;;;;;;;7.90;73.58;100691.56;4976341;28;20051;-43
2022/04/14 05:47:25;;;;;;;28.48;10.40;;;;;;;7.92;74.15;100684.75;4975802;28;20073;-42
2022/04/14 05:49:53;;;;;;;25.45;6.57;;;;;;;7.95;74.38;100689.09;4968924;28;20121;-41
2022/04/14 05:52:20;;;;;;;14.75;5.18;;;;;;;7.96;74.87;100691.69;4977189;28;20065;-42
2022/04/14 05:54:47;;;;;;;23.98;6.72;;;;;;;8.00;73.78;100694.34;4966985;28;20495;-42
2022/04/14 05:57:14;;;;;;;16.92;6.85;;;;;;;8.06;74.71;100697.00;4975014;28;20446;-40
2022/04/14 05:59:41;;;;;;;29.50;7.35;;;;;;;8.08;74.00;100690.19;4971739;28;20051;-43
2022/04/14 06:02:09;;;;;;;27.00;7.18;;;;;;;8.12;74.12;100691.97;4972404;28;20093;-44
2022/04/14 06:04:36;;;;;;;21.23;6.75;;;;;;;8.16;74.41;100692.88;4971544;28;20085;-41
2022/04/14 06:07:03;;;;;;;19.45;8.10;;;;;;;8.21;73.79;100691.28;4976356;28;20093;-44
2022/04/14 06:09:30;;;;;;;13.70;6.57;;;;;;;8.23;74.30;100689.56;4969623;28;20587;-39
2022/04/14 06:11:56;;;;;;;16.60;6.50;;;;;;;8.26;73.71;100694.78;4970778;28;20104;-42
2022/04/14 06:14:25;;;;;;;21.20;7.30;;;;;;;8.29;74.70;100704.28;4973340;28;20055;-46
2022/04/14 06:16:52;;;;;;;26.85;10.50;;;;;;;8.32;74.78;100694.03;4974104;28;20368;-44
2022/04/14 06:19:19;;;;;;;33.25;10.77;;;;;;;8.36;73.79;100704.44;4966276;28;20055;-42
2022/04/14 06:21:45;;;;;;;24.35;8.23;;;;;;;8.42;74.21;100706.25;4971564;28;20050;-41
2022/04/14 06:24:12;;;;;;;20.45;9.25;;;;;;;8.49;74.28;100707.22;4972673;28;20050;-40
2022/04/14 06:26:39;;;;;;;20.27;7.68;;;;;;;8.56;74.46;100708.22;4975819;28;20043;-44
2022/04/14 06:29:05;;;;;;;18.88;7.43;;;;;;;8.60;73.61;100705.72;4975344;28;20051;-40
2022/04/14 06:31:32;;;;;;;16.90;6.07;;;;;;;8.65;74.12;100703.19;4974043;28;20055;-42
2022/04/14 06:33:59;;;;;;;17.90;6.70;;;;;;;8.69;74.16;100710.16;4978790;28;20428;-43
2022/04/14 06:36:26;;;;;;;15.18;7.10;;;;;;;8.74;73.79;100703.34;4973595;28;20439;-43
2022/04/14 06:38:52;;;;;;;17.08;6.78;;;;;;;8.80;74.53;100696.53;4978375;28;20105;-40
2022/04/14 06:41:19;;;;;;;19.13;6.68;;;;;;;8.83;73.84;100697.47;4979596;28;20051;-41
2022/04/14 06:43:49;;;;;;;13.93;6.65;;;;;;;8.88;74.23;100689.75;4964583;28;20495;-43
2022/04/14 06:46:16;;;;;;;14.32;6.47;;;;;;;8.90;73.66;100698.41;4978566;28;20051;-44
2022/04/14 06:48:43;;;;;;;16.08;7.03;;;;;;;8.95;74.24;100691.59;4957657;28;20062;-42
2022/04/14 06:51:11;;;;;;;18.20;7.30;;;;;;;9.03;74.21;100693.41;4970844;28;20105;-42
2022/04/14 06:53:38;;;;;;;17.90;8.00;;;;;;;9.06;74.25;100693.47;4980014;28;20088;-44
2022/04/14 06:56:05;;;;;;;17.85;8.10;;;;;;;9.10;73.97;100700.41;4978158;28;20050;-41
2022/04/14 06:58:31;;;;;;;17.08;8.00;;;;;;;9.19;74.29;100703.09;4962513;28;20059;-42
2022/04/14 07:00:58;;;;;;;17.65;7.15;;;;;;;9.31;73.88;100702.41;4973699;28;20379;-45
2022/04/14 07:03:26;;;;;;;39.70;14.48;;;;;;;9.45;74.30;100705.16;4974629;28;20043;-43
2022/04/14 07:05:56;;;;;;;28.70;10.95;;;;;;;9.72;74.32;100706.34;4969215;28;20078;-42
2022/04/14 07:08:40;;;;;;;31.25;12.38;;;;;;;10.27;74.07;100702.59;4978429;28;20197;-42
2022/04/14 07:11:07;;;;;;;23.38;10.43;;;;;;;10.79;73.80;100697.84;4973283;28;20058;-40
2022/04/14 07:13:33;;;;;;;25.00;10.20;;;;;;;11.53;73.29;100707.75;4978329;28;20875;-43
2022/04/14 07:16:00;;;;;;;20.90;9.70;;;;;;;12.25;72.78;100707.94;4966671;28;20846;-44
2022/04/14 07:18:28;;;;;;;19.45;10.23;;;;;;;12.98;71.46;100707.03;4970823;28;20054;-42
2022/04/14 07:20:54;;;;;;;16.98;8.60;;;;;;;13.54;70.82;100719.91;4971072;28;20054;-45
2022/04/14 07:23:21;;;;;;;16.65;9.55;;;;;;;13.84;69.09;100712.81;4976118;28;20047;-44
2022/04/14 07:25:48;;;;;;;19.30;9.90;;;;;;;14.05;68.97;100723.97;4966624;28;20047;-41
2022/04/14 07:28:15;;;;;;;16.08;8.10;;;;;;;14.11;67.98;100723.94;4970059;28;20086;-45
2022/04/14 07:30:51;;;;;;;18.35;9.73;;;;;;;14.24;67.88;100726.44;4970572;28;20050;-46
2022/04/14 07:33:18;;;;;;;17.27;9.20;;;;;;;14.34;67.55;100728.13;4970667;28;20502;-42
2022/04/14 07:35:45;;;;;;;15.02;9.05;;;;;;;14.43;67.80;100731.53;4976405;28;20054;-43
2022/04/14 07:38:13;;;;;;;16.65;9.10;;;;;;;14.41;67.33;100736.75;4972253;28;20129;-43
2022/04/14 07:40:40;;;;;;;14.00;7.68;;;;;;;14.29;67.06;100739.47;4972656;28;20038;-44
2022/04/14 07:43:07;;;;;;;14.25;8.30;;;;;;;14.23;66.95;100735.16;4973345;28;20494;-44
2022/04/14 07:45:34;;;;;;;13.77;7.43;;;;;;;14.21;66.97;100736.88;4967297;28;20074;-43
2022/04/14 07:48:00;;;;;;;14.70;8.57;;;;;;;14.18;66.88;100740.38;4965754;28;20053;-43
2022/04/14 07:50:27;;;;;;;17.10;9.85;;;;;;;14.13;66.93;100745.66;4973397;28;20113;-42
2022/04/14 07:52:59;;;;;;;15.13;8.23;;;;;;;14.13;66.77;100744.78;4971776;28;20745;-43
2022/04/14 07:55:30;;;;;;;17.20;8.77;;;;;;;14.26;67.84;100756.81;4970615;28;20553;-41
2022/04/14 07:58:02;;;;;;;17.85;9.23;;;;;;;14.42;67.25;100743.69;4970119;28;20137;-43
2022/04/14 08:00:31;;;;;;;42.70;13.85;;;;;;;14.59;66.51;100746.16;4966915;28;20057;-41
2022/04/14 08:03:16;;;;;;;50.72;16.70;;;;;;;14.93;66.19;100752.00;4962292;28;20050;-41
2022/04/14 08:05:46;;;;;;;39.95;13.95;;;;;;;15.47;66.15;100750.56;4970518;28;20094;-41
2022/04/14 08:08:17;;;;;;;29.35;11.30;;;;;;;15.98;65.16;100759.53;4971839;28;20057;-42
2022/04/14 08:10:48;;;;;;;22.92;9.80;;;;;;;16.36;63.18;100760.72;4971492;28;20423;-42
2022/04/14 08:13:17;;;;;;;15.38;8.35;;;;;;;16.50;63.55;100767.47;4968243;28;20068;-44
2022/04/14 08:15:46;;;;;;;58.25;15.50;;;;;;;16.68;62.68;100767.16;4967602;28;20082;-41
2022/04/14 08:18:13;;;;;;;35.22;12.23;;;;;;;17.10;63.26;100770.84;4965637;28;20058;-44
2022/04/14 08:20:40;;;;;;;32.30;10.60;;;;;;;17.72;62.05;100764.41;4959052;28;20059;-44
2022/04/14 08:23:12;;;;;;;20.52;8.43;;;;;;;18.24;60.55;100768.56;4959115;28;20077;-44
2022/04/14 08:25:39;;;;;;;27.95;10.40;;;;;;;18.52;60.49;100761.75;4966322;28;20105;-44
2022/04/14 08:28:07;;;;;;;11.55;6.85;;;;;;;18.88;59.11;100764.38;4966594;28;20542;-42
2022/04/14 08:30:35;;;;;;;9.85;6.47;;;;;;;19.28;57.67;100767.69;4968054;28;20053;-42
2022/04/14 08:33:06;;;;;;;12.50;7.28;;;;;;;19.64;57.04;100772.84;4969576;28;20042;-44
2022/04/14 08:35:34;;;;;;;15.43;7.70;;;;;;;19.92;56.35;100773.75;4970422;28;20054;-45
2022/04/14 08:38:04;;;;;;;9.88;5.43;;;;;;;20.03;55.61;100770.84;4974450;28;20112;-43
2022/04/14 08:40:34;;;;;;;;;;;;;;;19.89;55.20;100773.84;4972723;28;20117;-45
2022/04/14 08:43:04;;;;;;;9.18;4.72;;;;;;;19.90;54.76;100770.34;4970477;28;19933;-45
2022/04/14 08:45:34;;;;;;;10.05;5.63;;;;;;;19.87;54.07;100770.41;4968530;28;20046;-44
2022/04/14 08:48:03;;;;;;;9.52;5.22;;;;;;;20.12;53.91;100777.56;4974589;28;20054;-44
2022/04/14 08:50:31;;;;;;;9.38;4.53;;;;;;;20.42;53.11;100777.50;4974467;28;20073;-47
2022/04/14 08:52:59;;;;;;;8.40;5.85;;;;;;;20.75;52.59;100774.69;4975052;28;20121;-45
2022/04/14 08:55:44;;;;;;;9.93;6.03;;;;;;;21.09;52.19;100782.34;4978009;28;20158;-48
2022/04/14 08:58:15;;;;;;;10.20;6.05;;;;;;;21.59;51.67;100776.19;4969673;28;20051;-44
2022/04/14 09:00:42;;;;;;;7.47;4.85;;;;;;;21.85;50.10;100779.59;4976691;28;20092;-44
2022/04/14 09:03:27;;;;;;;9.07;4.43;;;;;;;22.02;48.69;100784.22;4969110;28;20066;-44
2022/04/14 09:05:55;;;;;;;5.60;3.30;;;;;;;21.99;48.69;100784.38;4973683;28;20046;-44
2022/04/14 09:08:22;;;;;;;6.28;3.45;;;;;;;21.70;47.95;100783.66;4974477;28;20051;-44
2022/04/14 09:10:49;;;;;;;5.32;2.75;;;;;;;21.23;47.60;100784.50;4976103;28;20102;-45
2022/04/14 09:13:18;;;;;;;3.38;1.95;;;;;;;20.72;48.41;100790.59;4973929;28;20125;-43
2022/04/14 09:15:45;;;;;;;3.35;1.90;;;;;;;20.35;48.61;100797.03;4966420;28;20049;-44
2022/04/14 09:18:13;;;;;;;2.05;1.52;;;;;;;20.27;49.10;100794.66;4976442;28;20058;-44
2022/04/14 09:20:42;;;;;;;2.53;1.73;;;;;;;20.28;49.12;100792.00;4969697;28;20109;-45
2022/04/14 09:26:13;;;;;;;4.88;3.45;;;;;;;20.00;47.92;100797.25;5035378;28;20406;-43
2022/04/14 09:28:59;;;;;;;4.30;2.42;;;;;;;19.96;48.91;100791.16;4996754;28;20049;-46
2022/04/14 09:31:27;;;;;;;3.40;2.55;;;;;;;19.72;48.59;100793.63;4999663;28;20540;-44
2022/04/14 09:33:55;;;;;;;5.32;3.28;;;;;;;19.59;49.33;100792.25;5002316;28;20042;-44
2022/04/14 09:36:23;;;;;;;4.32;2.83;;;;;;;19.45;49.68;100801.38;4997440;28;20617;-43
2022/04/14 09:41:38;;;;;;;2.88;1.52;;;;;;;19.25;50.15;100804.56;5041844;27;20395;-48
2022/04/14 09:44:14;;;;;;;4.43;1.40;;;;;;;19.07;49.70;100798.03;5013556;28;20057;-45
2022/04/14 09:46:46;;;;;;;6.32;1.95;;;;;;;18.95;49.86;100797.41;5028527;28;20046;-44
2022/04/14 09:51:50;;;;;;;4.40;3.28;;;;;;;18.84;49.39;100802.06;5011334;27;20412;-45
2022/04/14 09:54:26;;;;;;;5.65;3.08;;;;;;;18.62;50.52;100797.38;5005372;28;20046;-43
2022/04/14 09:56:55;;;;;;;4.18;3.40;;;;;;;18.67;51.76;100800.75;5009949;28;20041;-48
2022/04/14 09:59:28;;;;;;;4.82;3.60;;;;;;;18.84;51.80;100794.19;5012793;28;20494;-44
2022/04/14 10:04:48;;;;;;;3.42;2.17;;;;;;;19.19;51.05;100797.72;5057401;28;20405;-44
2022/04/14 10:07:17;;;;;;;3.30;1.83;;;;;;;19.43;51.21;100797.94;5041809;28;20123;-44
2022/04/14 10:09:48;;;;;;;3.58;2.25;;;;;;;19.87;51.42;100801.97;5039920;28;20041;-44
2022/04/14 10:17:38;;;;;;;6.88;3.97;;;;;;;21.22;48.82;100802.09;5050054;28;20802;-45
2022/04/14 10:20:06;;;;;;;3.30;1.95;;;;;;;21.40;47.70;100804.97;5014532;28;20053;-46
2022/04/14 10:22:35;;;;;;;3.38;2.08;;;;;;;21.53;47.19;100798.34;4993449;28;20050;-45
2022/04/14 10:25:03;;;;;;;3.40;2.17;;;;;;;21.61;46.82;100800.69;4984808;28;20050;-43
2022/04/14 10:27:33;;;;;;;5.43;3.35;;;;;;;21.69;46.46;100797.78;4995462;28;20058;-43
2022/04/14 10:30:00;;;;;;;4.05;3.40;;;;;;;21.81;46.59;100799.97;4990077;28;20712;-47
2022/04/14 10:32:27;;;;;;;8.10;2.90;;;;;;;22.02;46.62;100805.31;4991942;28;21461;-48
2022/04/14 10:34:55;;;;;;;8.60;5.20;;;;;;;22.15;46.35;100805.72;4997329;28;20433;-46
2022/04/14 10:37:29;;;;;;;4.38;3.50;;;;;;;22.25;45.77;100806.22;4986398;28;20497;-45
2022/04/14 10:39:56;;;;;;;4.20;2.40;;;;;;;22.28;44.93;100800.81;4996438;28;20042;-46
2022/04/14 10:42:26;;;;;;;4.20;2.95;;;;;;;22.32;45.09;100807.69;4985393;28;20045;-47
2022/04/14 10:44:55;;;;;;;4.55;2.05;;;;;;;22.41;44.99;100810.88;5000941;28;20113;-48
2022/04/14 10:55:45;;;;;;;5.20;3.13;;;;;;;22.54;44.71;100801.53;5061429;28;20391;-46
2022/04/14 11:01:15;;;;;;;5.22;2.58;;;;;;;22.20;44.23;100806.41;4998462;28;20403;-48
2022/04/14 11:03:49;;;;;;;7.65;3.45;;;;;;;22.11;44.78;100803.25;4997607;28;20046;-44
2022/04/14 11:25:44;;;;;;;13.25;4.82;;;;;;;21.24;44.22;100813.41;5043813;28;20401;-44
2022/04/14 11:30:57;;;;;;;2.75;1.45;;;;;;;21.20;43.87;100806.53;5025725;27;22800;-46
2022/04/14 11:33:34;;;;;;;2.92;1.02;;;;;;;21.05;43.36;100808.78;5021444;28;20060;-47
2022/04/14 11:36:20;;;;;;;2.53;0.75;;;;;;;20.93;43.75;100809.22;5021010;28;20049;-48
2022/04/14 11:41:50;;;;;;;3.92;3.38;;;;;;;20.87;42.18;100809.41;5033802;28;20871;-48
2022/04/14 11:44:20;;;;;;;2.95;2.50;;;;;;;20.86;44.00;100811.16;5005368;28;20050;-44
2022/04/14 11:49:26;;;;;;;1.65;0.90;;;;;;;20.95;44.07;100812.66;5025761;28;20398;-46
2022/04/14 11:57:09;;;;;;;2.10;1.10;;;;;;;20.94;43.25;100810.97;5028646;28;20915;-48
2022/04/14 11:59:41;;;;;;;1.55;0.70;;;;;;;21.04;43.55;100804.44;5005609;28;20042;-48
2022/04/14 12:04:49;;;;;;;2.03;1.33;;;;;;;21.08;42.99;100805.22;5058438;28;20412;-48
2022/04/14 12:07:17;;;;;;;2.72;1.75;;;;;;;21.15;43.17;100813.75;5035368;28;20180;-45
2022/04/14 12:09:45;;;;;;;4.18;1.77;;;;;;;21.24;43.12;100805.50;5025005;28;20093;-45
2022/04/14 12:14:53;;;;;;;4.47;3.17;;;;;;;21.38;43.14;100798.91;5026009;28;20401;-44
2022/04/14 12:17:23;;;;;;;3.03;2.60;;;;;;;21.40;42.75;100808.47;4997052;28;20046;-45
2022/04/14 12:22:29;;;;;;;10.82;3.60;;;;;;;21.39;43.01;100803.25;5043647;28;20734;-44
2022/04/14 12:24:58;;;;;;;2.95;0.82;;;;;;;21.28;41.65;100799.22;4993165;28;20046;-44
2022/04/14 12:27:28;;;;;;;3.05;1.00;;;;;;;21.20;43.12;100806.53;5002708;28;20070;-46
2022/04/14 12:30:02;;;;;;;12.02;5.53;;;;;;;21.22;42.87;100801.22;4990341;28;20053;-44
2022/04/14 12:32:29;;;;;;;5.45;2.70;;;;;;;21.28;43.10;100799.22;4987092;28;20058;-45
2022/04/14 12:34:56;;;;;;;16.40;11.38;;;;;;;21.35;42.94;100802.53;5022495;28;20112;-45
2022/04/14 12:37:34;;;;;;;3.90;2.10;;;;;;;21.37;42.44;100802.44;4990954;28;20083;-43